Main page
METAR-TAF:

METAR-TAF

Airports :

Chadron Municipal Airport

Chadron, Nebraska, United States

latitude: 42-50-15N, longitude: 103-05-43W, elevation: 3296 ft

Current weather observation

The report was made 44 minutes ago, at 22:53 UTC
Temperature 79°F
Humidity 24%
Pressure 29.89 in. Hg
Visibility: 10 miles
Clear sky

METAR: KCDR 262253Z AUTO 10SM CLR 26/04 A2989 RMK AO2 SLP117 T02560044

Time: 17:37 (23:37 UTC)

Forecast

The report was made 17 minutes ago, at 23:20 UTC
Forecast valid from 27 at 00 UTC to 27 at 24 UTC
Wind 6 mph from variable directions
Visibility: 6 miles
Few clouds at a height of 7000 ft
From 27 at 0400 UTC
Wind 8 mph from the South/Southwest
Visibility: 6 miles
Clear sky

TAF: KCDR 262320Z 2700/2724 VRB05KT P6SM FEW070 FM270400 20007KT P6SM SKC

Weather observations and forecasts of more than 4000 airports (METAR and TAF reports).

The available stations are represented by yellow and red dots on the map.

Hover mouse over dot to see the name of the station.

Then click to see weather observations and forecasts.

To change the map : click on the green buttons with a black cross to zoom in, on the green button with a dash to zoom out, or on the green arrows for adjacent maps.


METAR-TAF: